Time;durP1;ratioP1;P1;durP2;ratioP2;P2;SDS_P1;SDS_P2;PMS_P1;PMS_P2;Temp;Humidity;BMP_temperature;BMP_pressure;BME280_temperature;BME280_humidity;BME280_pressure;Samples;Min_cycle;Max_cycle;Signal;HPM_P1;HPM_P2
2022/09/20 00:02:09;;;;;;;5.78;3.47;;;;;;;12.94;100.00;102184.19;5255303;28;20028;-72
2022/09/20 00:04:41;;;;;;;7.20;3.20;;;;;;;12.95;100.00;102182.41;5246702;28;20013;-72
2022/09/20 00:07:12;;;;;;;12.60;4.57;;;;;;;12.85;100.00;102169.09;5261285;28;20111;-72
2022/09/20 00:09:43;;;;;;;7.63;3.67;;;;;;;12.93;100.00;102186.94;5260789;28;20492;-72
2022/09/20 00:12:15;;;;;;;7.95;3.65;;;;;;;12.91;100.00;102187.88;5264600;28;20059;-72
2022/09/20 00:14:46;;;;;;;9.65;4.00;;;;;;;12.88;100.00;102177.59;5263070;28;20112;-72
2022/09/20 00:17:17;;;;;;;7.85;3.88;;;;;;;12.88;100.00;102174.13;5262753;28;20021;-72
2022/09/20 00:19:48;;;;;;;7.25;3.55;;;;;;;12.87;100.00;102178.53;5268521;28;20053;-72
2022/09/20 00:22:20;;;;;;;8.57;3.95;;;;;;;12.91;100.00;102179.16;5260826;28;20029;-72
2022/09/20 00:24:51;;;;;;;8.63;3.90;;;;;;;12.90;100.00;102177.47;5267640;28;20060;-72
2022/09/20 00:27:22;;;;;;;6.85;3.90;;;;;;;12.90;100.00;102177.47;5260326;28;20028;-72
2022/09/20 00:29:53;;;;;;;7.88;3.72;;;;;;;12.89;100.00;102179.28;5265259;28;20067;-72
2022/09/20 00:32:25;;;;;;;11.68;4.82;;;;;;;12.86;100.00;102174.22;5262891;28;20021;-72
2022/09/20 00:35:09;;;;;;;9.60;3.85;;;;;;;12.86;100.00;102176.03;5261275;28;20055;-72
2022/09/20 00:37:41;;;;;;;6.50;3.83;;;;;;;12.86;100.00;102183.91;5267683;28;20081;-72
2022/09/20 00:40:16;;;;;;;8.27;4.27;;;;;;;12.86;100.00;102181.28;5264550;28;20047;-72
2022/09/20 00:42:48;;;;;;;7.32;3.53;;;;;;;12.71;100.00;102183.25;5260695;28;20186;-72
2022/09/20 00:45:21;;;;;;;9.45;3.90;;;;;;;12.73;100.00;102186.59;5263246;28;20028;-72
2022/09/20 00:47:55;;;;;;;;;;;;;;;13.36;100.00;102184.63;5263368;28;20032;-72
2022/09/20 00:50:43;;;;;;;8.27;4.30;;;;;;;12.95;100.00;102188.50;5258751;28;19916;-72
2022/09/20 00:53:23;;;;;;;8.48;3.95;;;;;;;12.76;100.00;102189.00;5267912;28;20131;-72
2022/09/20 00:56:02;;;;;;;7.30;3.75;;;;;;;12.68;100.00;102178.19;5265828;28;20508;-72
2022/09/20 00:58:39;;;;;;;8.02;3.67;;;;;;;12.65;100.00;102183.66;5263992;28;20033;-72
2022/09/20 01:01:11;;;;;;;8.98;3.63;;;;;;;12.54;100.00;102183.59;5263679;28;20017;-72
2022/09/20 01:03:43;;;;;;;8.27;3.58;;;;;;;12.52;100.00;102183.72;5259344;28;20039;-72
2022/09/20 01:06:16;;;;;;;6.10;3.25;;;;;;;12.48;100.00;102177.00;5263631;28;20074;-72
2022/09/20 01:08:50;;;;;;;6.75;4.05;;;;;;;12.48;100.00;102184.06;5266224;28;20086;-72
2022/09/20 01:11:22;;;;;;;9.00;4.25;;;;;;;12.39;100.00;102173.25;5264519;28;20025;-72
2022/09/20 01:13:53;;;;;;;10.70;4.00;;;;;;;12.37;100.00;102175.13;5256533;28;20031;-72
2022/09/20 01:16:26;;;;;;;6.13;3.92;;;;;;;12.40;100.00;102176.72;5264392;28;20032;-72
2022/09/20 01:19:01;;;;;;;5.97;3.22;;;;;;;12.43;100.00;102178.31;5264864;28;20082;-72
2022/09/20 01:21:33;;;;;;;6.85;3.40;;;;;;;12.35;100.00;102176.19;5262081;28;20174;-71
2022/09/20 01:24:24;;;;;;;7.10;3.60;;;;;;;12.58;100.00;102171.94;5261758;28;20041;-72
2022/09/20 01:27:11;;;;;;;6.68;3.60;;;;;;;12.53;100.00;102171.41;5262691;28;20029;-72
2022/09/20 01:30:00;;;;;;;7.25;3.40;;;;;;;12.57;100.00;102170.25;5265523;28;20027;-72
2022/09/20 01:32:58;;;;;;;9.30;3.72;;;;;;;12.57;100.00;102171.06;5268443;28;20058;-72
2022/09/20 01:35:33;;;;;;;6.03;3.45;;;;;;;12.50;100.00;102182.16;5272050;28;20515;-72
2022/09/20 01:38:39;;;;;;;6.63;3.63;;;;;;;12.71;100.00;102174.50;5265673;28;20120;-72
2022/09/20 01:41:25;;;;;;;7.35;3.75;;;;;;;12.58;100.00;102177.19;5264486;28;20040;-72
2022/09/20 01:44:16;;;;;;;7.90;3.63;;;;;;;12.68;100.00;102174.72;5270422;28;20394;-72
2022/09/20 01:46:57;;;;;;;7.32;3.20;;;;;;;12.58;100.00;102182.47;5268670;28;20120;-72
2022/09/20 01:49:49;;;;;;;8.18;3.80;;;;;;;12.72;100.00;102181.44;5269631;28;20033;-72
2022/09/20 01:52:31;;;;;;;6.53;3.42;;;;;;;12.73;100.00;102176.09;5260662;28;20041;-72
2022/09/20 01:55:21;;;;;;;6.55;3.67;;;;;;;12.77;100.00;102185.44;5269284;28;20040;-72
2022/09/20 01:58:05;;;;;;;9.05;3.50;;;;;;;12.53;100.00;102177.50;5265539;28;20047;-72
2022/09/20 02:01:13;;;;;;;9.35;4.53;;;;;;;12.77;100.00;102177.53;5264350;28;20478;-72
2022/09/20 02:03:58;;;;;;;8.43;3.92;;;;;;;12.60;100.00;102160.34;5272572;28;20035;-72
2022/09/20 02:06:45;;;;;;;10.10;3.55;;;;;;;12.65;100.00;102173.16;5268129;28;20121;-72
2022/09/20 02:09:41;;;;;;;7.75;4.10;;;;;;;12.77;100.00;102181.97;5258273;28;20032;-72
2022/09/20 02:12:31;;;;;;;10.65;3.40;;;;;;;12.78;100.00;102173.97;5263432;28;20048;-72
2022/09/20 02:15:43;;;;;;;8.25;3.67;;;;;;;12.78;100.00;102178.38;5263720;28;20378;-72
2022/09/20 02:18:32;;;;;;;8.63;3.60;;;;;;;12.79;100.00;102186.16;5268334;28;20039;-72
2022/09/20 02:21:15;;;;;;;8.85;3.70;;;;;;;12.66;100.00;102180.13;5267134;28;20090;-72
2022/09/20 02:23:49;;;;;;;9.02;3.25;;;;;;;12.64;100.00;102182.84;5267333;28;20056;-73
2022/09/20 02:26:47;;;;;;;6.97;3.00;;;;;;;12.83;100.00;102176.25;5266846;28;20071;-72
2022/09/20 02:29:34;;;;;;;9.32;3.60;;;;;;;12.70;100.00;102163.16;5257300;28;20068;-72
2022/09/20 02:32:25;;;;;;;8.35;3.78;;;;;;;12.82;100.00;102175.41;5266296;28;20089;-75
2022/09/20 02:35:15;;;;;;;8.98;3.45;;;;;;;12.63;100.00;102177.69;5270671;28;20025;-72
2022/09/20 02:38:05;;;;;;;7.13;3.25;;;;;;;12.64;100.00;102168.84;5267666;28;20036;-72
2022/09/20 02:40:46;;;;;;;6.72;3.50;;;;;;;12.69;100.00;102172.00;5257458;28;20033;-72
2022/09/20 02:43:26;;;;;;;7.95;3.83;;;;;;;12.66;100.00;102174.84;5266827;28;20056;-73
2022/09/20 02:46:09;;;;;;;7.90;3.72;;;;;;;12.70;100.00;102175.47;5269398;28;20037;-72
2022/09/20 02:48:55;;;;;;;6.57;3.55;;;;;;;12.75;100.00;102183.84;5271641;28;20032;-72
2022/09/20 02:51:50;;;;;;;6.05;3.25;;;;;;;12.84;100.00;102180.53;5256037;28;20020;-72
2022/09/20 02:54:53;;;;;;;6.18;3.28;;;;;;;12.84;100.00;102180.53;5265619;28;20061;-74
2022/09/20 02:57:52;;;;;;;8.38;3.47;;;;;;;12.84;100.00;102173.53;5268037;28;20024;-72
2022/09/20 03:00:27;;;;;;;8.10;4.07;;;;;;;12.62;100.00;102170.78;5264196;28;21104;-72
2022/09/20 03:03:20;;;;;;;7.90;3.70;;;;;;;12.80;100.00;102164.16;5268577;28;20021;-72
2022/09/20 03:06:02;;;;;;;10.32;3.97;;;;;;;12.78;100.00;102166.06;5266673;28;20474;-72
2022/09/20 03:08:52;;;;;;;11.05;4.22;;;;;;;12.67;100.00;102160.75;5265595;28;20043;-72
2022/09/20 03:11:56;;;;;;;10.18;3.83;;;;;;;12.82;100.00;102170.16;5265293;28;20020;-72
2022/09/20 03:15:10;;;;;;;7.65;3.85;;;;;;;12.91;100.00;102161.56;5265522;28;20041;-72
2022/09/20 03:17:54;;;;;;;8.35;4.07;;;;;;;12.82;100.00;102175.41;5256120;28;20118;-72
2022/09/20 03:20:38;;;;;;;6.72;3.75;;;;;;;12.81;100.00;102173.75;5265459;28;20075;-72
2022/09/20 03:23:25;;;;;;;10.73;3.78;;;;;;;12.83;100.00;102169.19;5266331;28;20016;-72
2022/09/20 03:26:18;;;;;;;6.20;3.70;;;;;;;12.75;100.00;102168.91;5267133;28;20431;-71
2022/09/20 03:29:01;;;;;;;10.30;4.35;;;;;;;12.82;100.00;102178.03;5269757;28;20046;-72
2022/09/20 03:31:45;;;;;;;6.53;3.97;;;;;;;12.88;100.00;102167.09;5269384;28;20482;-72
2022/09/20 03:34:29;;;;;;;10.07;4.03;;;;;;;12.76;100.00;102170.59;5265132;28;20444;-72
2022/09/20 03:37:03;;;;;;;7.55;4.50;;;;;;;12.68;100.00;102172.94;5267593;28;20115;-75
2022/09/20 03:39:52;;;;;;;7.90;4.57;;;;;;;12.82;100.00;102179.84;5269098;28;20043;-72
2022/09/20 03:42:27;;;;;;;6.47;4.20;;;;;;;12.69;100.00;102182.53;5264461;28;20050;-73
2022/09/20 03:45:44;;;;;;;7.93;4.20;;;;;;;12.94;100.00;102175.47;5265354;28;20417;-72
2022/09/20 03:48:40;;;;;;;7.97;4.97;;;;;;;12.86;100.00;102168.97;5264316;28;20025;-72
2022/09/20 03:51:32;;;;;;;8.00;4.38;;;;;;;12.93;100.00;102181.69;5262990;28;20495;-72
2022/09/20 03:54:32;;;;;;;9.10;4.78;;;;;;;13.01;100.00;102176.69;5263646;28;20044;-72
2022/09/20 03:57:09;;;;;;;6.63;4.18;;;;;;;12.77;100.00;102180.19;5264856;28;20075;-72
2022/09/20 03:59:54;;;;;;;8.50;4.47;;;;;;;12.73;100.00;102181.34;5267344;28;20060;-72
2022/09/20 04:03:01;;;;;;;9.02;4.78;;;;;;;12.94;100.00;102180.72;5264073;28;20035;-72
2022/09/20 04:05:51;;;;;;;10.13;5.00;;;;;;;12.72;100.00;102173.56;5262007;28;20037;-72
2022/09/20 04:08:44;;;;;;;13.48;4.65;;;;;;;13.00;100.00;102177.66;5266399;28;20039;-74
2022/09/20 04:11:42;;;;;;;6.77;4.80;;;;;;;13.04;100.00;102179.94;5264860;28;20375;-72
2022/09/20 04:14:38;;;;;;;8.27;4.45;;;;;;;12.97;100.00;102167.34;5267682;28;20274;-73
2022/09/20 04:17:37;;;;;;;10.55;4.60;;;;;;;13.01;100.00;102158.28;5264774;28;20028;-72
2022/09/20 04:20:22;;;;;;;7.82;4.63;;;;;;;12.89;100.00;102152.13;5253382;28;20047;-72
2022/09/20 04:22:59;;;;;;;8.23;4.32;;;;;;;12.76;100.00;102157.44;5263634;28;20032;-72
2022/09/20 04:25:41;;;;;;;9.73;4.65;;;;;;;12.91;100.00;102155.47;5268536;28;20050;-72
2022/09/20 04:28:20;;;;;;;7.20;4.22;;;;;;;12.84;100.00;102168.25;5266335;28;20040;-74
2022/09/20 04:31:01;;;;;;;7.70;4.32;;;;;;;12.81;100.00;102165.84;5265101;28;20017;-72
2022/09/20 04:33:40;;;;;;;8.27;3.97;;;;;;;12.80;100.00;102158.06;5249333;28;20405;-72
2022/09/20 04:36:48;;;;;;;10.73;4.93;;;;;;;13.05;100.00;102157.94;5264994;28;20025;-75
2022/09/20 04:40:02;;;;;;;9.40;4.32;;;;;;;13.13;100.00;102160.00;5263451;28;20024;-72
2022/09/20 04:43:11;;;;;;;6.60;4.03;;;;;;;13.02;100.00;102166.03;5199885;28;20419;-72
2022/09/20 04:45:59;;;;;;;7.97;4.47;;;;;;;13.01;100.00;102168.81;5258969;28;20060;-72
2022/09/20 04:48:55;;;;;;;6.72;4.22;;;;;;;13.00;100.00;102165.34;5265940;28;20041;-72
2022/09/20 04:52:04;;;;;;;7.28;4.22;;;;;;;12.87;100.00;102173.28;5253468;28;20113;-72
2022/09/20 04:55:00;;;;;;;7.03;4.50;;;;;;;12.94;100.00;102173.66;5218703;28;20123;-72
2022/09/20 04:57:44;;;;;;;8.25;4.88;;;;;;;12.85;100.00;102174.34;5267815;28;20116;-74
2022/09/20 05:00:22;;;;;;;6.53;3.78;;;;;;;12.77;100.00;102185.44;5267961;28;20025;-72
2022/09/20 05:03:12;;;;;;;5.68;3.75;;;;;;;12.92;100.00;102183.47;5264914;28;20048;-72
2022/09/20 05:05:50;;;;;;;5.13;3.88;;;;;;;12.80;100.00;102176.47;5263568;28;20048;-72
2022/09/20 05:09:06;;;;;;;7.53;4.45;;;;;;;12.94;100.00;102181.56;5265014;28;20115;-72
2022/09/20 05:12:09;;;;;;;8.35;3.83;;;;;;;12.81;100.00;102184.25;5230512;28;20044;-72
2022/09/20 05:15:06;;;;;;;8.02;4.03;;;;;;;12.93;100.00;102181.69;5259043;28;20494;-72
2022/09/20 05:18:13;;;;;;;5.65;3.80;;;;;;;12.97;100.00;102191.03;5265721;28;20025;-74
2022/09/20 05:21:02;;;;;;;8.90;4.43;;;;;;;12.74;100.00;102185.66;5265625;28;20045;-72
2022/09/20 05:23:47;;;;;;;6.97;3.70;;;;;;;12.76;100.00;102196.88;5269081;28;20462;-72
2022/09/20 05:26:37;;;;;;;5.13;3.55;;;;;;;12.86;100.00;102199.69;5273409;28;20496;-73
2022/09/20 05:29:30;;;;;;;6.40;3.50;;;;;;;12.82;100.00;102196.44;5268784;28;20029;-72
2022/09/20 05:32:22;;;;;;;7.07;4.32;;;;;;;12.75;100.00;102194.38;5260945;28;20027;-71
2022/09/20 05:35:13;;;;;;;5.63;3.85;;;;;;;12.78;100.00;102202.88;5270257;28;20100;-72
2022/09/20 05:38:10;;;;;;;7.78;3.88;;;;;;;12.80;100.00;102210.66;5267326;28;20128;-73
2022/09/20 05:41:03;;;;;;;6.72;3.95;;;;;;;12.63;100.00;102217.13;5269486;28;20075;-74
2022/09/20 05:43:57;;;;;;;7.10;3.70;;;;;;;12.66;100.00;102216.91;5266034;28;20117;-72
2022/09/20 05:47:12;;;;;;;5.63;3.58;;;;;;;12.87;100.00;102211.88;5272330;28;20212;-72
2022/09/20 05:49:58;;;;;;;8.45;4.00;;;;;;;12.69;100.00;102215.84;5269619;28;20072;-72
2022/09/20 05:53:12;;;;;;;6.15;4.15;;;;;;;12.77;100.00;102214.38;5267749;28;20029;-72
2022/09/20 05:56:09;;;;;;;7.50;3.63;;;;;;;12.73;100.00;102218.16;5176930;28;20035;-72
2022/09/20 05:59:20;;;;;;;7.95;3.85;;;;;;;12.93;100.00;102221.13;5265499;28;20084;-72
2022/09/20 06:02:19;;;;;;;6.60;4.07;;;;;;;12.95;100.00;102227.09;5265288;28;20025;-73
2022/09/20 06:05:13;;;;;;;6.43;4.03;;;;;;;12.91;100.00;102227.31;5268447;28;20037;-72
2022/09/20 06:07:53;;;;;;;5.28;3.80;;;;;;;12.72;100.00;102240.13;5265564;28;20355;-72
2022/09/20 06:10:29;;;;;;;7.32;4.10;;;;;;;12.78;100.00;102241.50;5264933;28;20521;-73
2022/09/20 06:13:23;;;;;;;6.32;4.15;;;;;;;12.88;100.00;102243.34;5259748;28;20021;-72
2022/09/20 06:16:03;;;;;;;7.28;4.50;;;;;;;12.83;100.00;102234.09;5263195;28;20040;-72
2022/09/20 06:18:59;;;;;;;8.18;4.65;;;;;;;12.78;100.00;102237.06;5260893;28;20036;-72
2022/09/20 06:21:49;;;;;;;6.70;4.25;;;;;;;12.73;100.00;102249.72;5267400;28;20053;-72
2022/09/20 06:24:32;;;;;;;6.53;4.35;;;;;;;12.87;100.00;102244.28;5262043;28;20603;-72
2022/09/20 06:27:14;;;;;;;8.20;4.57;;;;;;;12.93;100.00;102255.34;5266424;28;20071;-72
2022/09/20 06:29:52;;;;;;;7.28;3.85;;;;;;;12.81;100.00;102247.38;5261205;28;20039;-72
2022/09/20 06:32:23;;;;;;;7.70;4.60;;;;;;;12.76;100.00;102246.84;5266923;28;20021;-72
2022/09/20 06:34:54;;;;;;;5.00;3.78;;;;;;;12.83;100.00;102257.78;5263656;28;20028;-72
2022/09/20 06:43:39;;;;;;;8.93;4.43;;;;;;;12.87;100.00;102246.91;5264246;28;20029;-72
2022/09/20 06:46:12;;;;;;;7.50;4.45;;;;;;;12.97;100.00;102252.38;5266457;28;20082;-72
2022/09/20 06:48:43;;;;;;;6.15;4.32;;;;;;;13.00;100.00;102251.31;5268226;28;20489;-72
2022/09/20 06:51:15;;;;;;;6.90;4.68;;;;;;;13.06;100.00;102251.69;5261368;28;20036;-72
2022/09/20 06:53:47;;;;;;;7.70;4.60;;;;;;;13.01;100.00;102245.09;5268065;28;20300;-72
2022/09/20 06:56:21;;;;;;;9.38;4.97;;;;;;;13.07;100.00;102242.88;5271547;28;20086;-72
2022/09/20 06:58:53;;;;;;;6.38;4.97;;;;;;;13.11;100.00;102254.84;5266756;28;20474;-72
2022/09/20 07:01:24;;;;;;;8.38;4.82;;;;;;;13.14;100.00;102243.22;5268651;28;20031;-72
2022/09/20 07:03:55;;;;;;;7.07;4.90;;;;;;;13.19;100.00;102251.66;5266346;28;20028;-76
2022/09/20 07:06:27;;;;;;;7.00;4.35;;;;;;;13.27;100.00;102259.00;5265822;28;20047;-72
2022/09/20 07:08:58;;;;;;;7.18;5.10;;;;;;;13.28;100.00;102256.25;5266039;28;20059;-72
2022/09/20 07:11:33;;;;;;;10.13;4.95;;;;;;;13.33;100.00;102250.63;5261449;28;20071;-73
2022/09/20 07:14:06;;;;;;;8.02;4.90;;;;;;;13.38;100.00;102254.63;5264714;28;20501;-73
2022/09/20 07:16:38;;;;;;;7.40;4.75;;;;;;;13.47;100.00;102249.63;5267675;28;20060;-72
2022/09/20 07:19:09;;;;;;;8.27;4.55;;;;;;;13.44;100.00;102244.59;5264417;28;20054;-72
2022/09/20 07:21:41;;;;;;;8.60;4.40;;;;;;;13.54;100.00;102253.47;5257994;28;20482;-72
2022/09/20 07:24:13;;;;;;;8.32;4.13;;;;;;;13.57;100.00;102248.00;5269813;28;20519;-72
2022/09/20 07:26:56;;;;;;;4.95;4.03;;;;;;;13.77;100.00;102249.94;5266485;28;21178;-72
2022/09/20 07:29:28;;;;;;;7.82;4.18;;;;;;;13.75;100.00;102251.00;5265471;28;20025;-73
2022/09/20 07:32:00;;;;;;;7.55;4.13;;;;;;;13.75;100.00;102243.97;5265493;28;20027;-72
2022/09/20 07:34:31;;;;;;;6.38;4.28;;;;;;;13.85;100.00;102246.72;5250085;28;20556;-72
2022/09/20 07:37:02;;;;;;;9.20;4.00;;;;;;;13.92;100.00;102247.94;5263169;28;20083;-72
2022/09/20 07:39:34;;;;;;;6.43;3.97;;;;;;;13.93;100.00;102246.16;5255047;28;20085;-73
2022/09/20 07:42:06;;;;;;;7.22;3.70;;;;;;;14.07;100.00;102256.47;5262157;28;20543;-74
2022/09/20 07:44:41;;;;;;;7.50;3.77;;;;;;;14.16;100.00;102261.00;5264166;28;20059;-74
2022/09/20 07:47:13;;;;;;;5.25;3.22;;;;;;;14.22;100.00;102262.34;5261380;28;20024;-73
2022/09/20 07:49:45;;;;;;;7.20;3.58;;;;;;;14.27;100.00;102270.72;5255622;28;20166;-72
2022/09/20 07:52:17;;;;;;;7.38;3.40;;;;;;;14.28;100.00;102254.81;5263062;28;20107;-72
2022/09/20 07:54:48;;;;;;;9.15;4.07;;;;;;;14.41;100.00;102272.31;5263742;28;20037;-73
2022/09/20 07:57:20;;;;;;;9.05;3.65;;;;;;;14.36;100.00;102276.13;5266292;28;20410;-73
2022/09/20 07:59:51;;;;;;;8.60;3.63;;;;;;;14.29;100.00;102280.22;5264792;28;20025;-72
2022/09/20 08:02:22;;;;;;;6.88;3.45;;;;;;;14.30;100.00;102281.03;5254509;28;20096;-71
2022/09/20 08:04:53;;;;;;;5.40;3.15;;;;;;;14.30;100.00;102281.88;5265855;28;20036;-73
2022/09/20 08:07:25;;;;;;;7.72;3.45;;;;;;;14.27;100.00;102284.75;5266470;28;20125;-75
2022/09/20 08:09:56;;;;;;;7.18;3.38;;;;;;;14.30;100.00;102283.69;5265568;28;20032;-72
2022/09/20 08:12:28;;;;;;;6.75;3.40;;;;;;;14.46;100.00;102285.94;5263967;28;20036;-75
2022/09/20 08:15:00;;;;;;;6.22;3.80;;;;;;;14.59;100.00;102284.91;5266220;28;20454;-73
2022/09/20 08:17:31;;;;;;;8.25;3.22;;;;;;;14.72;100.00;102284.78;5251820;28;20025;-72
2022/09/20 08:20:03;;;;;;;5.30;3.80;;;;;;;14.88;100.00;102286.19;5260987;28;20049;-73
2022/09/20 08:22:35;;;;;;;5.53;3.00;;;;;;;15.02;100.00;102288.56;5259705;28;20083;-72
2022/09/20 08:25:06;;;;;;;7.10;3.30;;;;;;;15.00;100.00;102293.09;5255119;28;20470;-73
2022/09/20 08:27:37;;;;;;;7.93;3.15;;;;;;;14.97;100.00;102288.09;5249077;28;20119;-72
2022/09/20 08:30:10;;;;;;;5.25;2.75;;;;;;;14.97;100.00;102293.38;5258834;28;20017;-72
2022/09/20 08:32:41;;;;;;;7.55;2.92;;;;;;;15.03;100.00;102291.06;5254205;28;20036;-72
2022/09/20 08:35:13;;;;;;;5.55;2.72;;;;;;;15.09;100.00;102295.03;5258590;28;20059;-73
2022/09/20 08:37:45;;;;;;;7.97;2.60;;;;;;;15.17;100.00;102292.59;5258250;28;20031;-73
2022/09/20 08:40:17;;;;;;;8.23;2.10;;;;;;;15.27;100.00;102288.25;5261682;28;20028;-73
2022/09/20 08:42:48;;;;;;;5.80;2.00;;;;;;;15.37;100.00;102296.25;5252310;28;20040;-72
2022/09/20 08:45:23;;;;;;;5.47;1.98;;;;;;;15.47;100.00;102297.16;5259789;28;20036;-73
2022/09/20 08:47:59;;;;;;;8.15;1.95;;;;;;;15.63;100.00;102302.00;5256984;28;20056;-72
2022/09/20 08:50:33;;;;;;;7.07;1.65;;;;;;;15.69;100.00;102306.84;5260826;28;20089;-73
2022/09/20 08:53:04;;;;;;;7.40;1.40;;;;;;;15.68;100.00;102302.53;5263594;28;20064;-73
2022/09/20 08:55:40;;;;;;;4.47;1.25;;;;;;;15.89;100.00;102304.31;5262931;28;20336;-73
2022/09/20 08:58:13;;;;;;;6.15;1.30;;;;;;;15.91;100.00;102311.16;5261884;28;20021;-72
2022/09/20 09:00:45;;;;;;;6.60;1.50;;;;;;;16.01;100.00;102300.63;5264490;28;20446;-72
2022/09/20 09:03:17;;;;;;;4.97;1.20;;;;;;;16.22;100.00;102309.41;5259351;28;20037;-72
2022/09/20 09:05:54;;;;;;;6.38;1.50;;;;;;;16.34;100.00;102309.31;5266300;28;20033;-72
2022/09/20 09:08:36;;;;;;;8.77;1.88;;;;;;;16.34;100.00;102309.31;5269294;28;20028;-73
2022/09/20 09:11:18;;;;;;;8.73;1.60;;;;;;;16.52;100.00;102311.22;5266896;28;20060;-72
2022/09/20 09:14:47;;;;;;;4.27;0.83;;;;;;;16.58;100.00;102304.53;5263049;28;20029;-72
2022/09/20 09:16:57;;;;;;;4.75;0.95;;;;;;;16.60;100.00;102304.41;5263298;28;20282;-73
2022/09/20 09:19:32;;;;;;;5.85;1.20;;;;;;;16.76;100.00;102310.91;5265883;28;20389;-72
2022/09/20 09:22:04;;;;;;;4.22;1.10;;;;;;;16.93;100.00;102303.25;5263475;28;20021;-73
2022/09/20 09:24:36;;;;;;;4.95;1.55;;;;;;;16.97;100.00;102302.88;5263941;28;20568;-73
2022/09/20 09:27:18;;;;;;;6.85;1.02;;;;;;;17.34;100.00;102301.38;5269324;28;20013;-72
2022/09/20 09:29:52;;;;;;;8.00;1.30;;;;;;;17.21;100.00;102304.31;5265003;28;20433;-72
2022/09/20 09:32:29;;;;;;;5.32;1.17;;;;;;;17.33;100.00;102297.06;5259150;28;20363;-73
2022/09/20 09:35:22;;;;;;;6.13;1.05;;;;;;;17.43;100.00;102292.59;5267221;28;20064;-73
2022/09/20 09:37:59;;;;;;;7.03;1.58;;;;;;;17.40;100.00;102304.31;5265210;28;20028;-73
2022/09/20 09:40:31;;;;;;;4.38;1.05;;;;;;;17.28;100.00;102300.13;5254893;28;20161;-73
2022/09/20 09:43:03;;;;;;;8.18;1.00;;;;;;;17.18;100.00;102292.16;5267738;28;20111;-73
2022/09/20 09:45:37;;;;;;;7.00;1.38;;;;;;;17.20;100.00;102302.63;5267475;28;20149;-73
2022/09/20 09:48:32;;;;;;;8.52;1.73;;;;;;;17.35;100.00;102303.91;5250429;28;20037;-72
2022/09/20 09:51:10;;;;;;;6.60;1.10;;;;;;;17.10;100.00;102305.25;5270597;28;20056;-73
2022/09/20 09:53:43;;;;;;;6.18;1.27;;;;;;;17.03;100.00;102309.44;5263531;28;20037;-73
2022/09/20 09:56:24;;;;;;;5.88;1.05;;;;;;;16.99;100.00;102315.97;5256171;28;20028;-73
2022/09/20 09:59:27;;;;;;;5.00;1.20;;;;;;;17.18;100.00;102308.06;5267059;28;20107;-73
2022/09/20 10:02:15;;;;;;;6.30;1.27;;;;;;;16.80;100.00;102313.28;5268432;28;20489;-72
2022/09/20 10:05:07;;;;;;;6.80;1.20;;;;;;;16.84;100.00;102312.03;5268921;28;20033;-73
2022/09/20 10:07:45;;;;;;;6.22;1.40;;;;;;;16.59;100.00;102313.31;5265707;28;20040;-73
2022/09/20 10:10:26;;;;;;;6.00;1.58;;;;;;;16.56;100.00;102319.72;5265400;28;20116;-73
2022/09/20 10:13:17;;;;;;;7.10;1.20;;;;;;;16.54;100.00;102324.28;5269404;28;20039;-73
2022/09/20 10:15:57;;;;;;;4.90;1.15;;;;;;;16.67;100.00;102322.25;5265370;28;20036;-73
2022/09/20 10:18:53;;;;;;;6.85;1.10;;;;;;;16.71;100.00;102314.91;5266536;28;20036;-73
2022/09/20 10:21:30;;;;;;;5.78;1.10;;;;;;;16.37;100.00;102317.81;5266930;28;20039;-73
2022/09/20 10:24:29;;;;;;;5.45;0.95;;;;;;;16.46;100.00;102314.38;5263146;28;20055;-72
2022/09/20 10:27:15;;;;;;;6.47;1.10;;;;;;;16.41;100.00;102319.22;5263661;28;20043;-72
2022/09/20 10:30:11;;;;;;;4.80;1.17;;;;;;;16.42;100.00;102323.53;5262427;28;20028;-72
2022/09/20 10:32:54;;;;;;;7.10;1.40;;;;;;;16.28;100.00;102318.59;5269162;28;20028;-73
2022/09/20 10:35:51;;;;;;;5.80;1.30;;;;;;;16.54;100.00;102316.34;5268567;28;20025;-72
2022/09/20 10:38:32;;;;;;;5.38;1.00;;;;;;;16.52;100.00;102319.13;5263243;28;20114;-73
2022/09/20 10:44:50;;;;;;;5.85;1.40;;;;;;;16.80;100.00;102313.28;5264297;28;20127;-73
2022/09/20 10:47:51;;;;;;;6.55;1.40;;;;;;;16.95;100.00;102314.56;5265939;28;20024;-73
2022/09/20 10:50:51;;;;;;;7.22;1.20;;;;;;;16.94;100.00;102312.91;5258098;28;20020;-73
2022/09/20 10:53:44;;;;;;;4.80;1.10;;;;;;;17.01;100.00;102312.22;5234720;28;20427;-73
2022/09/20 10:56:27;;;;;;;6.33;1.27;;;;;;;16.99;100.00;102311.50;5266683;28;20068;-72
2022/09/20 10:59:17;;;;;;;;;;;;;;;17.60;100.00;102318.38;5264985;28;20039;-74
2022/09/20 11:02:16;;;;;;;4.18;0.85;;;;;;;17.10;100.00;102313.19;5271117;28;20216;-73
2022/09/20 11:05:19;;;;;;;5.72;1.17;;;;;;;17.02;100.00;102319.19;5263506;28;20131;-73
2022/09/20 11:08:14;;;;;;;7.50;1.13;;;;;;;17.12;100.00;102321.00;5268877;28;20457;-73
2022/09/20 11:10:53;;;;;;;7.63;1.15;;;;;;;17.12;100.00;102303.31;5267409;28;20322;-73
2022/09/20 11:13:46;;;;;;;6.72;1.50;;;;;;;17.45;100.00;102311.84;5264683;28;20021;-73
2022/09/20 11:16:26;;;;;;;6.90;1.42;;;;;;;17.45;98.07;102317.13;5263407;28;20036;-73
2022/09/20 11:19:09;;;;;;;5.75;1.10;;;;;;;17.72;100.00;102321.72;5268039;28;20027;-73
2022/09/20 11:21:49;;;;;;;4.10;1.05;;;;;;;18.15;97.09;102315.97;5264098;28;20493;-73
2022/09/20 11:24:40;;;;;;;4.05;1.27;;;;;;;18.36;92.12;102317.56;5266243;28;20127;-73
2022/09/20 11:27:24;;;;;;;4.65;1.02;;;;;;;18.32;91.08;102318.84;5264236;28;20031;-73
2022/09/20 11:30:03;;;;;;;5.88;1.67;;;;;;;18.23;88.93;102323.22;5258726;28;20040;-73
2022/09/20 11:32:41;;;;;;;5.57;0.90;;;;;;;17.96;88.76;102319.50;5262121;28;20033;-72
2022/09/20 11:35:28;;;;;;;6.65;1.30;;;;;;;17.93;92.69;102316.31;5266179;28;20029;-73
2022/09/20 11:38:21;;;;;;;5.07;1.10;;;;;;;17.97;88.69;102328.28;5262831;28;20028;-72
2022/09/20 11:40:59;;;;;;;6.55;1.17;;;;;;;17.59;88.97;102327.31;5262285;28;20021;-73
2022/09/20 11:43:31;;;;;;;7.55;1.38;;;;;;;17.32;90.58;102338.59;5262774;28;20530;-73
2022/09/20 11:46:07;;;;;;;4.55;1.25;;;;;;;17.28;91.08;102334.56;5260264;28;20071;-73
2022/09/20 11:48:46;;;;;;;4.80;1.10;;;;;;;17.39;91.78;102344.19;5268834;28;20024;-73
2022/09/20 11:51:17;;;;;;;4.55;1.05;;;;;;;17.23;93.78;102344.72;5264111;28;20036;-74
2022/09/20 11:54:04;;;;;;;3.57;1.10;;;;;;;17.43;91.39;102340.28;5264153;28;20036;-73
2022/09/20 11:56:36;;;;;;;3.17;1.02;;;;;;;17.17;96.64;102340.81;5261538;28;20027;-73
2022/09/20 11:59:27;;;;;;;4.43;1.33;;;;;;;17.36;86.73;102333.88;5259531;28;20548;-73
2022/09/20 12:02:00;;;;;;;6.22;1.25;;;;;;;17.15;84.44;102336.63;5262526;28;20041;-73
2022/09/20 12:04:34;;;;;;;3.53;0.90;;;;;;;17.21;93.06;102336.09;5261695;28;20394;-74
2022/09/20 12:07:17;;;;;;;5.10;1.10;;;;;;;17.27;89.52;102341.69;5260074;28;20028;-74
2022/09/20 12:10:02;;;;;;;4.75;1.08;;;;;;;17.46;89.89;102338.22;5259811;28;20029;-73
2022/09/20 12:12:47;;;;;;;5.50;1.10;;;;;;;17.40;93.02;102345.88;5261907;28;20028;-73
2022/09/20 12:15:39;;;;;;;4.68;0.93;;;;;;;17.41;93.23;102345.72;5261631;28;20123;-71
2022/09/20 12:18:34;;;;;;;4.75;1.02;;;;;;;17.41;94.07;102348.38;5266531;28;20428;-73
2022/09/20 12:21:08;;;;;;;3.35;1.05;;;;;;;17.29;93.69;102340.69;5260297;28;20039;-73
2022/09/20 12:24:00;;;;;;;4.75;1.17;;;;;;;17.54;97.78;102340.16;5264434;28;20070;-74
2022/09/20 12:26:40;;;;;;;3.65;1.05;;;;;;;17.37;94.82;102351.44;5262158;28;20028;-73
2022/09/20 12:29:23;;;;;;;5.28;1.05;;;;;;;17.39;95.12;102342.38;5259930;28;20032;-73
2022/09/20 12:31:59;;;;;;;6.07;1.00;;;;;;;17.16;95.83;102359.47;5257222;28;20379;-73
2022/09/20 12:34:35;;;;;;;3.63;0.70;;;;;;;17.22;96.19;102354.47;5264243;28;20510;-74
2022/09/20 12:37:06;;;;;;;4.07;1.00;;;;;;;17.23;91.20;102350.84;5259977;28;20091;-73
2022/09/20 12:39:48;;;;;;;4.32;1.08;;;;;;;17.46;93.20;102337.34;5262353;28;20024;-73
2022/09/20 12:42:28;;;;;;;4.65;0.75;;;;;;;17.79;92.41;102340.59;5266314;28;20052;-73